sensor_id;sensor_type;location;lat;lon;timestamp;P1;durP1;ratioP1;P2;durP2;ratioP2
67456;SDS011;54319;52.038;4.640;2023-05-17T00:00:56;14.53;;;3.97;;
67456;SDS011;54319;52.038;4.640;2023-05-17T00:03:23;13.57;;;3.85;;
67456;SDS011;54319;52.038;4.640;2023-05-17T00:05:50;16.17;;;3.83;;
67456;SDS011;54319;52.038;4.640;2023-05-17T00:08:17;12.07;;;3.40;;
67456;SDS011;54319;52.038;4.640;2023-05-17T00:10:43;11.98;;;3.85;;
67456;SDS011;54319;52.038;4.640;2023-05-17T00:13:11;10.98;;;3.60;;
67456;SDS011;54319;52.038;4.640;2023-05-17T00:15:38;12.70;;;3.70;;
67456;SDS011;54319;52.038;4.640;2023-05-17T00:18:05;9.98;;;3.20;;
67456;SDS011;54319;52.038;4.640;2023-05-17T00:20:31;15.32;;;3.63;;
67456;SDS011;54319;52.038;4.640;2023-05-17T00:22:58;12.13;;;3.80;;
67456;SDS011;54319;52.038;4.640;2023-05-17T00:25:25;14.07;;;3.60;;
67456;SDS011;54319;52.038;4.640;2023-05-17T00:27:52;9.98;;;3.78;;
67456;SDS011;54319;52.038;4.640;2023-05-17T00:30:20;15.57;;;3.30;;
67456;SDS011;54319;52.038;4.640;2023-05-17T00:32:47;11.52;;;3.28;;
67456;SDS011;54319;52.038;4.640;2023-05-17T00:35:14;11.30;;;3.80;;
67456;SDS011;54319;52.038;4.640;2023-05-17T00:37:40;15.93;;;3.97;;
67456;SDS011;54319;52.038;4.640;2023-05-17T00:40:12;10.73;;;3.42;;
67456;SDS011;54319;52.038;4.640;2023-05-17T00:42:40;15.98;;;3.78;;
67456;SDS011;54319;52.038;4.640;2023-05-17T00:45:07;13.80;;;3.30;;
67456;SDS011;54319;52.038;4.640;2023-05-17T00:50:02;16.00;;;3.40;;
67456;SDS011;54319;52.038;4.640;2023-05-17T00:52:30;11.38;;;3.38;;
67456;SDS011;54319;52.038;4.640;2023-05-17T00:54:56;12.50;;;4.22;;
67456;SDS011;54319;52.038;4.640;2023-05-17T00:57:24;13.80;;;3.50;;
67456;SDS011;54319;52.038;4.640;2023-05-17T00:59:51;10.40;;;3.45;;
67456;SDS011;54319;52.038;4.640;2023-05-17T01:02:19;14.75;;;3.22;;
67456;SDS011;54319;52.038;4.640;2023-05-17T01:04:47;11.43;;;3.47;;
67456;SDS011;54319;52.038;4.640;2023-05-17T01:07:14;10.90;;;3.40;;
67456;SDS011;54319;52.038;4.640;2023-05-17T01:09:41;11.57;;;3.38;;
67456;SDS011;54319;52.038;4.640;2023-05-17T01:12:10;19.38;;;3.75;;
67456;SDS011;54319;52.038;4.640;2023-05-17T01:14:46;10.45;;;3.42;;
67456;SDS011;54319;52.038;4.640;2023-05-17T01:17:21;14.73;;;3.90;;
67456;SDS011;54319;52.038;4.640;2023-05-17T01:19:55;12.60;;;3.83;;
67456;SDS011;54319;52.038;4.640;2023-05-17T01:22:37;12.00;;;3.80;;
67456;SDS011;54319;52.038;4.640;2023-05-17T01:25:14;15.32;;;3.33;;
67456;SDS011;54319;52.038;4.640;2023-05-17T01:28:03;19.63;;;4.03;;
67456;SDS011;54319;52.038;4.640;2023-05-17T01:30:31;21.17;;;4.20;;
67456;SDS011;54319;52.038;4.640;2023-05-17T01:32:59;16.63;;;3.80;;
67456;SDS011;54319;52.038;4.640;2023-05-17T01:35:27;14.77;;;4.07;;
67456;SDS011;54319;52.038;4.640;2023-05-17T01:37:54;13.23;;;3.30;;
67456;SDS011;54319;52.038;4.640;2023-05-17T01:40:21;12.83;;;3.37;;
67456;SDS011;54319;52.038;4.640;2023-05-17T01:42:50;13.20;;;4.43;;
67456;SDS011;54319;52.038;4.640;2023-05-17T01:45:23;14.65;;;3.63;;
67456;SDS011;54319;52.038;4.640;2023-05-17T01:47:57;8.80;;;3.67;;
67456;SDS011;54319;52.038;4.640;2023-05-17T01:50:33;13.75;;;3.60;;
67456;SDS011;54319;52.038;4.640;2023-05-17T01:53:04;11.35;;;3.35;;
67456;SDS011;54319;52.038;4.640;2023-05-17T01:55:43;12.05;;;3.40;;
67456;SDS011;54319;52.038;4.640;2023-05-17T01:58:15;12.05;;;3.47;;
67456;SDS011;54319;52.038;4.640;2023-05-17T02:00:48;14.07;;;4.03;;
67456;SDS011;54319;52.038;4.640;2023-05-17T02:03:19;11.55;;;3.72;;
67456;SDS011;54319;52.038;4.640;2023-05-17T02:05:47;14.88;;;3.50;;
67456;SDS011;54319;52.038;4.640;2023-05-17T02:08:14;14.25;;;4.03;;
67456;SDS011;54319;52.038;4.640;2023-05-17T02:10:41;11.90;;;3.97;;
67456;SDS011;54319;52.038;4.640;2023-05-17T02:13:08;11.95;;;3.47;;
67456;SDS011;54319;52.038;4.640;2023-05-17T02:15:35;11.35;;;3.22;;
67456;SDS011;54319;52.038;4.640;2023-05-17T02:18:03;12.20;;;3.63;;
67456;SDS011;54319;52.038;4.640;2023-05-17T02:20:30;10.82;;;3.83;;
67456;SDS011;54319;52.038;4.640;2023-05-17T02:22:57;15.88;;;3.90;;
67456;SDS011;54319;52.038;4.640;2023-05-17T02:25:24;11.50;;;3.40;;
67456;SDS011;54319;52.038;4.640;2023-05-17T02:27:50;15.82;;;4.03;;
67456;SDS011;54319;52.038;4.640;2023-05-17T02:30:17;13.77;;;4.03;;
67456;SDS011;54319;52.038;4.640;2023-05-17T02:32:46;17.10;;;3.70;;
67456;SDS011;54319;52.038;4.640;2023-05-17T02:35:14;13.18;;;3.63;;
67456;SDS011;54319;52.038;4.640;2023-05-17T02:37:40;12.95;;;3.80;;
67456;SDS011;54319;52.038;4.640;2023-05-17T02:40:07;14.35;;;3.95;;
67456;SDS011;54319;52.038;4.640;2023-05-17T02:42:35;19.02;;;4.38;;
67456;SDS011;54319;52.038;4.640;2023-05-17T02:45:02;16.60;;;3.90;;
67456;SDS011;54319;52.038;4.640;2023-05-17T02:47:29;26.67;;;4.10;;
67456;SDS011;54319;52.038;4.640;2023-05-17T02:50:02;13.15;;;3.88;;
67456;SDS011;54319;52.038;4.640;2023-05-17T02:52:33;14.63;;;3.45;;
67456;SDS011;54319;52.038;4.640;2023-05-17T02:54:59;17.92;;;3.95;;
67456;SDS011;54319;52.038;4.640;2023-05-17T02:57:26;15.98;;;4.60;;
67456;SDS011;54319;52.038;4.640;2023-05-17T02:59:53;14.23;;;3.53;;
67456;SDS011;54319;52.038;4.640;2023-05-17T03:02:19;14.80;;;3.95;;
67456;SDS011;54319;52.038;4.640;2023-05-17T03:04:46;9.77;;;3.70;;
67456;SDS011;54319;52.038;4.640;2023-05-17T03:07:13;24.85;;;4.40;;
67456;SDS011;54319;52.038;4.640;2023-05-17T03:09:41;7.97;;;3.25;;
67456;SDS011;54319;52.038;4.640;2023-05-17T03:12:08;14.68;;;4.00;;
67456;SDS011;54319;52.038;4.640;2023-05-17T03:14:35;12.88;;;3.72;;
67456;SDS011;54319;52.038;4.640;2023-05-17T03:17:02;16.30;;;3.95;;
67456;SDS011;54319;52.038;4.640;2023-05-17T03:19:28;9.77;;;3.93;;
67456;SDS011;54319;52.038;4.640;2023-05-17T03:21:55;11.82;;;3.85;;
67456;SDS011;54319;52.038;4.640;2023-05-17T03:24:21;14.20;;;3.83;;
67456;SDS011;54319;52.038;4.640;2023-05-17T03:26:49;9.60;;;3.13;;
67456;SDS011;54319;52.038;4.640;2023-05-17T03:29:16;16.42;;;3.72;;
67456;SDS011;54319;52.038;4.640;2023-05-17T03:31:43;14.65;;;3.80;;
67456;SDS011;54319;52.038;4.640;2023-05-17T03:34:10;13.47;;;3.67;;
67456;SDS011;54319;52.038;4.640;2023-05-17T03:36:36;9.32;;;3.47;;
67456;SDS011;54319;52.038;4.640;2023-05-17T03:39:04;12.07;;;3.70;;
67456;SDS011;54319;52.038;4.640;2023-05-17T03:41:31;15.88;;;4.00;;
67456;SDS011;54319;52.038;4.640;2023-05-17T03:44:00;13.10;;;4.13;;
67456;SDS011;54319;52.038;4.640;2023-05-17T03:46:27;9.77;;;3.25;;
67456;SDS011;54319;52.038;4.640;2023-05-17T03:48:53;9.98;;;3.25;;
67456;SDS011;54319;52.038;4.640;2023-05-17T03:51:20;9.20;;;3.50;;
67456;SDS011;54319;52.038;4.640;2023-05-17T03:53:47;11.52;;;3.60;;
67456;SDS011;54319;52.038;4.640;2023-05-17T03:56:13;10.35;;;3.13;;
67456;SDS011;54319;52.038;4.640;2023-05-17T03:58:42;14.60;;;3.53;;
67456;SDS011;54319;52.038;4.640;2023-05-17T04:01:10;13.38;;;3.75;;
67456;SDS011;54319;52.038;4.640;2023-05-17T04:03:36;11.05;;;3.33;;
67456;SDS011;54319;52.038;4.640;2023-05-17T04:06:04;11.73;;;2.83;;
67456;SDS011;54319;52.038;4.640;2023-05-17T04:08:31;14.77;;;2.95;;
67456;SDS011;54319;52.038;4.640;2023-05-17T04:10:58;15.52;;;3.17;;
67456;SDS011;54319;52.038;4.640;2023-05-17T04:13:29;13.85;;;3.65;;
67456;SDS011;54319;52.038;4.640;2023-05-17T04:15:56;11.75;;;3.92;;
67456;SDS011;54319;52.038;4.640;2023-05-17T04:18:24;17.30;;;3.00;;
67456;SDS011;54319;52.038;4.640;2023-05-17T04:20:51;12.35;;;2.67;;
67456;SDS011;54319;52.038;4.640;2023-05-17T04:23:17;9.77;;;2.95;;
67456;SDS011;54319;52.038;4.640;2023-05-17T04:25:44;7.68;;;3.10;;
67456;SDS011;54319;52.038;4.640;2023-05-17T04:28:11;15.20;;;3.08;;
67456;SDS011;54319;52.038;4.640;2023-05-17T04:30:40;10.65;;;2.42;;
67456;SDS011;54319;52.038;4.640;2023-05-17T04:33:07;18.67;;;3.88;;
67456;SDS011;54319;52.038;4.640;2023-05-17T04:35:35;10.53;;;3.13;;
67456;SDS011;54319;52.038;4.640;2023-05-17T04:38:03;15.77;;;3.70;;
67456;SDS011;54319;52.038;4.640;2023-05-17T04:40:30;9.57;;;3.60;;
67456;SDS011;54319;52.038;4.640;2023-05-17T04:42:56;13.57;;;3.83;;
67456;SDS011;54319;52.038;4.640;2023-05-17T04:45:23;11.05;;;3.63;;
67456;SDS011;54319;52.038;4.640;2023-05-17T04:47:53;12.93;;;3.53;;
67456;SDS011;54319;52.038;4.640;2023-05-17T04:50:24;15.05;;;3.88;;
67456;SDS011;54319;52.038;4.640;2023-05-17T04:52:52;13.88;;;3.65;;
67456;SDS011;54319;52.038;4.640;2023-05-17T04:55:19;16.83;;;4.20;;
67456;SDS011;54319;52.038;4.640;2023-05-17T04:57:46;14.30;;;3.53;;
67456;SDS011;54319;52.038;4.640;2023-05-17T05:00:13;10.60;;;3.42;;
67456;SDS011;54319;52.038;4.640;2023-05-17T05:02:41;12.25;;;3.92;;
67456;SDS011;54319;52.038;4.640;2023-05-17T05:05:07;10.52;;;3.28;;
67456;SDS011;54319;52.038;4.640;2023-05-17T05:07:34;11.10;;;3.35;;
67456;SDS011;54319;52.038;4.640;2023-05-17T05:10:05;15.38;;;3.55;;
67456;SDS011;54319;52.038;4.640;2023-05-17T05:12:32;12.57;;;3.40;;
67456;SDS011;54319;52.038;4.640;2023-05-17T05:14:59;16.45;;;4.20;;
67456;SDS011;54319;52.038;4.640;2023-05-17T05:17:26;15.30;;;3.97;;
67456;SDS011;54319;52.038;4.640;2023-05-17T05:19:54;17.45;;;4.70;;
67456;SDS011;54319;52.038;4.640;2023-05-17T05:22:21;11.88;;;4.22;;
67456;SDS011;54319;52.038;4.640;2023-05-17T05:24:47;16.90;;;3.80;;
67456;SDS011;54319;52.038;4.640;2023-05-17T05:27:15;9.43;;;2.88;;
67456;SDS011;54319;52.038;4.640;2023-05-17T05:29:42;11.25;;;3.67;;
67456;SDS011;54319;52.038;4.640;2023-05-17T05:32:08;10.68;;;2.65;;
67456;SDS011;54319;52.038;4.640;2023-05-17T05:34:35;15.23;;;3.03;;
67456;SDS011;54319;52.038;4.640;2023-05-17T05:37:03;7.95;;;2.88;;
67456;SDS011;54319;52.038;4.640;2023-05-17T05:39:30;12.75;;;2.95;;
67456;SDS011;54319;52.038;4.640;2023-05-17T05:41:56;15.98;;;3.15;;
67456;SDS011;54319;52.038;4.640;2023-05-17T05:44:24;17.23;;;2.63;;
67456;SDS011;54319;52.038;4.640;2023-05-17T05:46:51;10.27;;;2.50;;
67456;SDS011;54319;52.038;4.640;2023-05-17T05:49:18;10.98;;;2.65;;
67456;SDS011;54319;52.038;4.640;2023-05-17T05:51:44;10.77;;;2.20;;
67456;SDS011;54319;52.038;4.640;2023-05-17T05:54:11;9.80;;;2.28;;
67456;SDS011;54319;52.038;4.640;2023-05-17T05:56:38;13.13;;;2.40;;
67456;SDS011;54319;52.038;4.640;2023-05-17T05:59:04;16.35;;;2.60;;
67456;SDS011;54319;52.038;4.640;2023-05-17T06:01:33;9.53;;;2.20;;
67456;SDS011;54319;52.038;4.640;2023-05-17T06:03:59;16.85;;;2.50;;
67456;SDS011;54319;52.038;4.640;2023-05-17T06:06:26;10.15;;;2.13;;
67456;SDS011;54319;52.038;4.640;2023-05-17T06:08:52;12.07;;;2.70;;
67456;SDS011;54319;52.038;4.640;2023-05-17T06:11:20;11.98;;;2.35;;
67456;SDS011;54319;52.038;4.640;2023-05-17T06:13:48;8.73;;;2.03;;
67456;SDS011;54319;52.038;4.640;2023-05-17T06:16:15;9.73;;;2.28;;
67456;SDS011;54319;52.038;4.640;2023-05-17T06:18:43;13.73;;;2.37;;
67456;SDS011;54319;52.038;4.640;2023-05-17T06:21:09;11.18;;;2.38;;
67456;SDS011;54319;52.038;4.640;2023-05-17T06:23:39;10.60;;;2.05;;
67456;SDS011;54319;52.038;4.640;2023-05-17T06:26:05;13.80;;;2.20;;
67456;SDS011;54319;52.038;4.640;2023-05-17T06:28:34;11.52;;;2.10;;
67456;SDS011;54319;52.038;4.640;2023-05-17T06:31:01;12.80;;;2.58;;
67456;SDS011;54319;52.038;4.640;2023-05-17T06:35:56;7.75;;;1.65;;
67456;SDS011;54319;52.038;4.640;2023-05-17T06:38:23;9.32;;;2.65;;
67456;SDS011;54319;52.038;4.640;2023-05-17T06:40:50;8.87;;;1.70;;
67456;SDS011;54319;52.038;4.640;2023-05-17T06:45:44;15.67;;;2.10;;
67456;SDS011;54319;52.038;4.640;2023-05-17T06:48:10;11.37;;;2.00;;
67456;SDS011;54319;52.038;4.640;2023-05-17T06:50:37;10.67;;;2.17;;
67456;SDS011;54319;52.038;4.640;2023-05-17T06:53:05;11.25;;;1.58;;
67456;SDS011;54319;52.038;4.640;2023-05-17T06:55:32;7.85;;;2.40;;
67456;SDS011;54319;52.038;4.640;2023-05-17T06:57:58;12.02;;;1.95;;
67456;SDS011;54319;52.038;4.640;2023-05-17T07:00:25;9.93;;;2.17;;
67456;SDS011;54319;52.038;4.640;2023-05-17T07:02:52;15.20;;;2.10;;
67456;SDS011;54319;52.038;4.640;2023-05-17T07:05:19;6.80;;;1.90;;
67456;SDS011;54319;52.038;4.640;2023-05-17T07:07:48;13.30;;;3.00;;
67456;SDS011;54319;52.038;4.640;2023-05-17T07:10:16;12.27;;;3.17;;
67456;SDS011;54319;52.038;4.640;2023-05-17T07:12:42;12.43;;;2.03;;
67456;SDS011;54319;52.038;4.640;2023-05-17T07:15:09;12.80;;;2.37;;
67456;SDS011;54319;52.038;4.640;2023-05-17T07:17:36;8.30;;;1.40;;
67456;SDS011;54319;52.038;4.640;2023-05-17T07:20:04;11.00;;;2.30;;
67456;SDS011;54319;52.038;4.640;2023-05-17T07:22:31;7.63;;;1.92;;
67456;SDS011;54319;52.038;4.640;2023-05-17T07:24:58;9.77;;;1.50;;
67456;SDS011;54319;52.038;4.640;2023-05-17T07:27:33;6.03;;;1.80;;
67456;SDS011;54319;52.038;4.640;2023-05-17T07:30:00;5.95;;;1.63;;
67456;SDS011;54319;52.038;4.640;2023-05-17T07:32:27;10.77;;;1.63;;
67456;SDS011;54319;52.038;4.640;2023-05-17T07:34:54;9.40;;;1.73;;
67456;SDS011;54319;52.038;4.640;2023-05-17T07:37:20;5.95;;;1.70;;
67456;SDS011;54319;52.038;4.640;2023-05-17T07:42:14;8.48;;;1.80;;
67456;SDS011;54319;52.038;4.640;2023-05-17T07:44:43;11.65;;;1.98;;
67456;SDS011;54319;52.038;4.640;2023-05-17T07:47:12;8.65;;;1.45;;
67456;SDS011;54319;52.038;4.640;2023-05-17T07:49:39;7.20;;;2.28;;
67456;SDS011;54319;52.038;4.640;2023-05-17T07:52:05;6.38;;;1.20;;
67456;SDS011;54319;52.038;4.640;2023-05-17T07:54:32;13.20;;;1.85;;
67456;SDS011;54319;52.038;4.640;2023-05-17T07:57:01;7.43;;;1.70;;
67456;SDS011;54319;52.038;4.640;2023-05-17T07:59:27;7.40;;;1.55;;
67456;SDS011;54319;52.038;4.640;2023-05-17T08:01:55;4.82;;;1.20;;
67456;SDS011;54319;52.038;4.640;2023-05-17T08:04:22;6.70;;;1.45;;
67456;SDS011;54319;52.038;4.640;2023-05-17T08:06:49;8.57;;;1.98;;
67456;SDS011;54319;52.038;4.640;2023-05-17T08:09:16;5.43;;;1.30;;
67456;SDS011;54319;52.038;4.640;2023-05-17T08:11:45;9.65;;;1.70;;
67456;SDS011;54319;52.038;4.640;2023-05-17T08:14:12;8.98;;;1.77;;
67456;SDS011;54319;52.038;4.640;2023-05-17T08:16:39;6.72;;;1.45;;
67456;SDS011;54319;52.038;4.640;2023-05-17T08:19:09;8.07;;;1.50;;
67456;SDS011;54319;52.038;4.640;2023-05-17T08:21:38;7.63;;;1.40;;
67456;SDS011;54319;52.038;4.640;2023-05-17T08:24:05;6.90;;;1.40;;
67456;SDS011;54319;52.038;4.640;2023-05-17T08:26:31;5.32;;;1.60;;
67456;SDS011;54319;52.038;4.640;2023-05-17T08:28:59;4.05;;;1.27;;
67456;SDS011;54319;52.038;4.640;2023-05-17T08:31:27;7.35;;;1.33;;
67456;SDS011;54319;52.038;4.640;2023-05-17T08:33:53;4.57;;;1.45;;
67456;SDS011;54319;52.038;4.640;2023-05-17T08:36:21;5.55;;;1.35;;
67456;SDS011;54319;52.038;4.640;2023-05-17T08:38:49;6.28;;;1.63;;
67456;SDS011;54319;52.038;4.640;2023-05-17T08:41:16;8.80;;;1.40;;
67456;SDS011;54319;52.038;4.640;2023-05-17T08:43:43;4.97;;;1.85;;
67456;SDS011;54319;52.038;4.640;2023-05-17T08:46:10;5.95;;;1.27;;
67456;SDS011;54319;52.038;4.640;2023-05-17T08:48:38;7.30;;;1.73;;
67456;SDS011;54319;52.038;4.640;2023-05-17T08:51:07;3.33;;;1.00;;
67456;SDS011;54319;52.038;4.640;2023-05-17T08:53:37;10.68;;;1.80;;
67456;SDS011;54319;52.038;4.640;2023-05-17T08:56:04;7.35;;;1.70;;
67456;SDS011;54319;52.038;4.640;2023-05-17T08:58:33;4.63;;;1.58;;
67456;SDS011;54319;52.038;4.640;2023-05-17T09:01:01;8.13;;;1.38;;
67456;SDS011;54319;52.038;4.640;2023-05-17T09:03:29;3.47;;;1.17;;
67456;SDS011;54319;52.038;4.640;2023-05-17T09:05:57;10.52;;;2.05;;
67456;SDS011;54319;52.038;4.640;2023-05-17T09:08:25;5.10;;;1.33;;
67456;SDS011;54319;52.038;4.640;2023-05-17T09:10:54;5.25;;;1.30;;
67456;SDS011;54319;52.038;4.640;2023-05-17T09:13:23;8.07;;;1.60;;
67456;SDS011;54319;52.038;4.640;2023-05-17T09:15:50;5.30;;;1.52;;
67456;SDS011;54319;52.038;4.640;2023-05-17T09:18:18;4.85;;;1.63;;
67456;SDS011;54319;52.038;4.640;2023-05-17T09:20:48;7.28;;;1.55;;
67456;SDS011;54319;52.038;4.640;2023-05-17T09:23:17;5.30;;;1.55;;
67456;SDS011;54319;52.038;4.640;2023-05-17T09:25:46;4.90;;;1.20;;
67456;SDS011;54319;52.038;4.640;2023-05-17T09:28:17;6.47;;;1.52;;
67456;SDS011;54319;52.038;4.640;2023-05-17T09:30:46;6.18;;;1.40;;
67456;SDS011;54319;52.038;4.640;2023-05-17T09:33:14;6.53;;;1.80;;
67456;SDS011;54319;52.038;4.640;2023-05-17T09:35:41;12.07;;;2.15;;
67456;SDS011;54319;52.038;4.640;2023-05-17T09:38:08;5.85;;;1.50;;
67456;SDS011;54319;52.038;4.640;2023-05-17T09:40:36;7.38;;;1.85;;
67456;SDS011;54319;52.038;4.640;2023-05-17T09:43:04;5.10;;;1.50;;
67456;SDS011;54319;52.038;4.640;2023-05-17T09:45:32;6.57;;;1.77;;
67456;SDS011;54319;52.038;4.640;2023-05-17T09:48:10;5.53;;;1.50;;
67456;SDS011;54319;52.038;4.640;2023-05-17T09:50:42;5.18;;;1.30;;
67456;SDS011;54319;52.038;4.640;2023-05-17T09:53:20;3.13;;;1.10;;
67456;SDS011;54319;52.038;4.640;2023-05-17T09:55:48;6.03;;;1.60;;
67456;SDS011;54319;52.038;4.640;2023-05-17T09:58:16;9.27;;;1.48;;
67456;SDS011;54319;52.038;4.640;2023-05-17T10:00:45;7.53;;;1.63;;
67456;SDS011;54319;52.038;4.640;2023-05-17T10:03:16;7.90;;;1.58;;
67456;SDS011;54319;52.038;4.640;2023-05-17T10:05:43;6.88;;;1.83;;
67456;SDS011;54319;52.038;4.640;2023-05-17T10:08:11;5.32;;;1.30;;
67456;SDS011;54319;52.038;4.640;2023-05-17T10:10:40;6.80;;;1.63;;
67456;SDS011;54319;52.038;4.640;2023-05-17T10:15:35;5.53;;;1.52;;
67456;SDS011;54319;52.038;4.640;2023-05-17T10:18:05;7.30;;;1.70;;
67456;SDS011;54319;52.038;4.640;2023-05-17T10:20:34;6.20;;;1.30;;
67456;SDS011;54319;52.038;4.640;2023-05-17T10:23:01;6.78;;;1.40;;
67456;SDS011;54319;52.038;4.640;2023-05-17T10:25:30;11.60;;;1.80;;
67456;SDS011;54319;52.038;4.640;2023-05-17T10:30:25;5.32;;;1.25;;
67456;SDS011;54319;52.038;4.640;2023-05-17T10:32:53;6.18;;;1.50;;
67456;SDS011;54319;52.038;4.640;2023-05-17T10:35:22;8.27;;;1.40;;
67456;SDS011;54319;52.038;4.640;2023-05-17T10:37:50;4.45;;;1.40;;
67456;SDS011;54319;52.038;4.640;2023-05-17T10:40:17;7.32;;;1.67;;
67456;SDS011;54319;52.038;4.640;2023-05-17T10:42:45;4.93;;;1.33;;
67456;SDS011;54319;52.038;4.640;2023-05-17T10:45:16;5.88;;;1.58;;
67456;SDS011;54319;52.038;4.640;2023-05-17T10:47:46;6.80;;;1.73;;
67456;SDS011;54319;52.038;4.640;2023-05-17T10:50:20;5.55;;;1.40;;
67456;SDS011;54319;52.038;4.640;2023-05-17T10:52:49;5.88;;;1.40;;
67456;SDS011;54319;52.038;4.640;2023-05-17T10:55:19;8.50;;;1.70;;
67456;SDS011;54319;52.038;4.640;2023-05-17T11:00:42;5.47;;;1.17;;
67456;SDS011;54319;52.038;4.640;2023-05-17T11:03:15;7.20;;;1.48;;
67456;SDS011;54319;52.038;4.640;2023-05-17T11:06:10;6.65;;;1.58;;
67456;SDS011;54319;52.038;4.640;2023-05-17T11:08:43;5.78;;;1.83;;
67456;SDS011;54319;52.038;4.640;2023-05-17T11:11:12;7.15;;;1.45;;
67456;SDS011;54319;52.038;4.640;2023-05-17T11:13:42;5.97;;;1.52;;
67456;SDS011;54319;52.038;4.640;2023-05-17T11:16:13;7.97;;;1.58;;
67456;SDS011;54319;52.038;4.640;2023-05-17T11:18:47;8.45;;;1.60;;
67456;SDS011;54319;52.038;4.640;2023-05-17T11:21:16;4.32;;;1.50;;
67456;SDS011;54319;52.038;4.640;2023-05-17T11:23:44;10.10;;;1.70;;
67456;SDS011;54319;52.038;4.640;2023-05-17T11:26:15;10.00;;;1.70;;
67456;SDS011;54319;52.038;4.640;2023-05-17T11:28:46;6.70;;;1.27;;
67456;SDS011;54319;52.038;4.640;2023-05-17T11:31:13;9.30;;;1.83;;
67456;SDS011;54319;52.038;4.640;2023-05-17T11:33:41;8.15;;;1.45;;
67456;SDS011;54319;52.038;4.640;2023-05-17T11:36:13;5.75;;;1.40;;
67456;SDS011;54319;52.038;4.640;2023-05-17T11:38:47;13.48;;;1.75;;
67456;SDS011;54319;52.038;4.640;2023-05-17T11:41:15;4.38;;;1.02;;
67456;SDS011;54319;52.038;4.640;2023-05-17T11:43:47;7.38;;;1.67;;
67456;SDS011;54319;52.038;4.640;2023-05-17T11:46:18;10.40;;;1.80;;
67456;SDS011;54319;52.038;4.640;2023-05-17T11:48:45;6.93;;;1.42;;
67456;SDS011;54319;52.038;4.640;2023-05-17T11:51:16;8.00;;;1.80;;
67456;SDS011;54319;52.038;4.640;2023-05-17T11:53:45;6.32;;;1.42;;
67456;SDS011;54319;52.038;4.640;2023-05-17T11:56:13;7.82;;;1.60;;
67456;SDS011;54319;52.038;4.640;2023-05-17T11:58:41;8.65;;;1.52;;
67456;SDS011;54319;52.038;4.640;2023-05-17T12:01:08;7.15;;;1.60;;
67456;SDS011;54319;52.038;4.640;2023-05-17T12:03:35;8.60;;;1.45;;
67456;SDS011;54319;52.038;4.640;2023-05-17T12:06:03;7.20;;;1.48;;
67456;SDS011;54319;52.038;4.640;2023-05-17T12:08:34;5.80;;;1.48;;
67456;SDS011;54319;52.038;4.640;2023-05-17T12:11:02;7.32;;;1.60;;
67456;SDS011;54319;52.038;4.640;2023-05-17T12:13:30;8.57;;;1.90;;
67456;SDS011;54319;52.038;4.640;2023-05-17T12:15:58;5.22;;;1.70;;
67456;SDS011;54319;52.038;4.640;2023-05-17T12:18:35;7.03;;;1.38;;
67456;SDS011;54319;52.038;4.640;2023-05-17T12:21:03;3.90;;;1.48;;
67456;SDS011;54319;52.038;4.640;2023-05-17T12:23:30;8.55;;;1.60;;
67456;SDS011;54319;52.038;4.640;2023-05-17T12:26:09;6.93;;;1.77;;
67456;SDS011;54319;52.038;4.640;2023-05-17T12:28:37;4.53;;;1.20;;
67456;SDS011;54319;52.038;4.640;2023-05-17T12:31:07;7.88;;;1.65;;
67456;SDS011;54319;52.038;4.640;2023-05-17T12:33:37;9.45;;;1.83;;
67456;SDS011;54319;52.038;4.640;2023-05-17T12:36:06;4.97;;;1.40;;
67456;SDS011;54319;52.038;4.640;2023-05-17T12:38:34;6.72;;;1.50;;
67456;SDS011;54319;52.038;4.640;2023-05-17T12:41:03;7.15;;;1.75;;
67456;SDS011;54319;52.038;4.640;2023-05-17T12:43:33;12.32;;;1.75;;
67456;SDS011;54319;52.038;4.640;2023-05-17T12:46:01;8.10;;;1.80;;
67456;SDS011;54319;52.038;4.640;2023-05-17T12:48:30;6.65;;;1.77;;
67456;SDS011;54319;52.038;4.640;2023-05-17T12:51:04;8.98;;;1.85;;
67456;SDS011;54319;52.038;4.640;2023-05-17T12:53:34;7.07;;;1.70;;
67456;SDS011;54319;52.038;4.640;2023-05-17T12:56:02;7.25;;;1.55;;
67456;SDS011;54319;52.038;4.640;2023-05-17T12:58:29;3.53;;;1.42;;
67456;SDS011;54319;52.038;4.640;2023-05-17T13:00:58;3.33;;;1.50;;
67456;SDS011;54319;52.038;4.640;2023-05-17T13:03:26;7.40;;;1.67;;
67456;SDS011;54319;52.038;4.640;2023-05-17T13:05:58;5.05;;;1.42;;
67456;SDS011;54319;52.038;4.640;2023-05-17T13:08:26;8.05;;;1.60;;
67456;SDS011;54319;52.038;4.640;2023-05-17T13:11:03;7.10;;;1.58;;
67456;SDS011;54319;52.038;4.640;2023-05-17T13:13:31;7.85;;;1.58;;
67456;SDS011;54319;52.038;4.640;2023-05-17T13:16:00;6.20;;;1.73;;
67456;SDS011;54319;52.038;4.640;2023-05-17T13:18:26;10.20;;;1.80;;
67456;SDS011;54319;52.038;4.640;2023-05-17T13:20:53;8.60;;;1.80;;
67456;SDS011;54319;52.038;4.640;2023-05-17T13:23:20;5.88;;;1.63;;
67456;SDS011;54319;52.038;4.640;2023-05-17T13:25:46;7.38;;;1.80;;
67456;SDS011;54319;52.038;4.640;2023-05-17T13:28:13;5.43;;;1.95;;
67456;SDS011;54319;52.038;4.640;2023-05-17T13:30:40;9.05;;;1.70;;
67456;SDS011;54319;52.038;4.640;2023-05-17T13:33:11;10.05;;;1.90;;
67456;SDS011;54319;52.038;4.640;2023-05-17T13:35:37;5.75;;;1.75;;
67456;SDS011;54319;52.038;4.640;2023-05-17T13:38:05;5.80;;;1.55;;
67456;SDS011;54319;52.038;4.640;2023-05-17T13:40:31;7.32;;;1.60;;
67456;SDS011;54319;52.038;4.640;2023-05-17T13:42:58;10.02;;;1.73;;
67456;SDS011;54319;52.038;4.640;2023-05-17T13:45:25;5.68;;;1.60;;
67456;SDS011;54319;52.038;4.640;2023-05-17T13:50:20;5.40;;;1.83;;
67456;SDS011;54319;52.038;4.640;2023-05-17T13:52:48;8.60;;;2.00;;
67456;SDS011;54319;52.038;4.640;2023-05-17T13:55:14;7.85;;;1.80;;
67456;SDS011;54319;52.038;4.640;2023-05-17T13:57:41;6.22;;;1.70;;
67456;SDS011;54319;52.038;4.640;2023-05-17T14:00:10;6.25;;;1.63;;
67456;SDS011;54319;52.038;4.640;2023-05-17T14:02:37;7.68;;;1.80;;
67456;SDS011;54319;52.038;4.640;2023-05-17T14:05:04;6.00;;;1.55;;
67456;SDS011;54319;52.038;4.640;2023-05-17T14:07:35;6.93;;;1.52;;
67456;SDS011;54319;52.038;4.640;2023-05-17T14:10:05;10.45;;;1.58;;
67456;SDS011;54319;52.038;4.640;2023-05-17T14:12:33;6.15;;;1.70;;
67456;SDS011;54319;52.038;4.640;2023-05-17T14:14:59;5.30;;;1.48;;
67456;SDS011;54319;52.038;4.640;2023-05-17T14:17:27;5.80;;;1.67;;
67456;SDS011;54319;52.038;4.640;2023-05-17T14:19:54;5.35;;;1.77;;
67456;SDS011;54319;52.038;4.640;2023-05-17T14:22:20;5.97;;;1.83;;
67456;SDS011;54319;52.038;4.640;2023-05-17T14:24:48;6.25;;;1.60;;
67456;SDS011;54319;52.038;4.640;2023-05-17T14:27:15;6.70;;;1.90;;
67456;SDS011;54319;52.038;4.640;2023-05-17T14:29:42;7.78;;;2.17;;
67456;SDS011;54319;52.038;4.640;2023-05-17T14:32:08;6.07;;;1.60;;
67456;SDS011;54319;52.038;4.640;2023-05-17T14:34:36;8.15;;;1.90;;
67456;SDS011;54319;52.038;4.640;2023-05-17T14:37:03;6.38;;;1.80;;
67456;SDS011;54319;52.038;4.640;2023-05-17T14:39:30;9.13;;;2.00;;
67456;SDS011;54319;52.038;4.640;2023-05-17T14:41:58;5.43;;;1.85;;
67456;SDS011;54319;52.038;4.640;2023-05-17T14:44:26;6.43;;;1.80;;
67456;SDS011;54319;52.038;4.640;2023-05-17T14:46:53;8.02;;;1.75;;
67456;SDS011;54319;52.038;4.640;2023-05-17T14:49:20;11.60;;;1.90;;
67456;SDS011;54319;52.038;4.640;2023-05-17T14:51:47;4.95;;;1.83;;
67456;SDS011;54319;52.038;4.640;2023-05-17T14:54:13;9.93;;;1.85;;
67456;SDS011;54319;52.038;4.640;2023-05-17T14:56:40;9.35;;;1.67;;
67456;SDS011;54319;52.038;4.640;2023-05-17T14:59:08;6.57;;;1.38;;
67456;SDS011;54319;52.038;4.640;2023-05-17T15:01:35;10.10;;;1.73;;
67456;SDS011;54319;52.038;4.640;2023-05-17T15:04:02;8.43;;;2.10;;
67456;SDS011;54319;52.038;4.640;2023-05-17T15:06:29;9.32;;;2.08;;